Aviation Digital Data Service (ADDS)

Output produced by METARs form (2108 UTC 26 May 2019)
found at http://aviationweather.gov/metar/data/
 
TAF EPDA 262000Z 2621/2706 23008KT 5000 -RADZ BR BKN015 
     PROB40 
     TEMPO 2621/2703 3000 RADZ BR BKN005 OVC010